Time;durP1;ratioP1;P1;durP2;ratioP2;P2;SDS_P1;SDS_P2;PMS_P1;PMS_P2;Temp;Humidity;BMP_temperature;BMP_pressure;BME280_temperature;BME280_humidity;BME280_pressure;Samples;Min_cycle;Max_cycle;Signal;HPM_P1;HPM_P2
2024/03/27 00:00:14;;;;;;;7.70;6.50;;;;;;;5.18;78.36;99998.16;105782;1252;62171;-70
2024/03/27 00:02:41;;;;;;;8.70;6.40;;;;;;;5.15;78.25;100002.52;105876;1256;66706;-70
2024/03/27 00:05:08;;;;;;;7.40;6.20;;;;;;;5.12;78.29;100002.35;105755;1254;62137;-71
2024/03/27 00:07:34;;;;;;;7.90;6.60;;;;;;;5.11;78.30;99999.64;105835;1254;64018;-71
2024/03/27 00:10:02;;;;;;;12.10;6.70;;;;;;;5.09;78.30;99991.20;105810;1253;62137;-72
2024/03/27 00:12:29;;;;;;;12.00;6.40;;;;;;;5.06;78.25;99989.45;105947;1252;62146;-72
2024/03/27 00:14:55;;;;;;;7.50;6.10;;;;;;;5.04;78.29;99989.30;105871;1254;65468;-70
2024/03/27 00:17:22;;;;;;;10.10;5.90;;;;;;;5.00;78.21;99993.69;105805;1254;62075;-71
2024/03/27 00:19:49;;;;;;;7.60;5.70;;;;;;;4.97;78.22;100000.70;105903;1254;63928;-72
2024/03/27 00:22:16;;;;;;;7.80;6.00;;;;;;;4.94;78.24;100014.16;105686;1254;62186;-71
2024/03/27 00:24:43;;;;;;;7.20;6.20;;;;;;;4.92;78.19;100018.42;106010;1254;62040;-70
2024/03/27 00:27:09;;;;;;;8.00;6.00;;;;;;;4.91;78.12;100021.99;105978;1256;66785;-70
2024/03/27 00:29:36;;;;;;;8.60;5.90;;;;;;;4.90;78.17;100022.39;106085;1254;62028;-70
2024/03/27 00:32:03;;;;;;;9.30;6.40;;;;;;;4.90;78.39;100020.84;105977;1254;63731;-70
2024/03/27 00:34:32;;;;;;;7.90;6.20;;;;;;;4.89;78.47;100022.43;106000;1254;62218;-70
2024/03/27 00:37:00;;;;;;;8.40;6.00;;;;;;;4.89;78.43;100028.20;105972;1256;61970;-70
2024/03/27 00:39:27;;;;;;;7.20;5.90;;;;;;;4.89;78.46;100029.08;105918;1256;66763;-70
2024/03/27 00:41:54;;;;;;;8.70;6.10;;;;;;;4.89;78.41;100027.33;105887;1254;62037;-70
2024/03/27 00:44:20;;;;;;;7.90;6.50;;;;;;;4.89;78.46;100027.04;105921;1256;62981;-71
2024/03/27 00:46:47;;;;;;;7.60;6.10;;;;;;;4.90;78.47;100027.29;105870;1254;62146;-73
2024/03/27 00:49:14;;;;;;;7.10;6.20;;;;;;;4.92;78.51;100024.58;105912;1254;62097;-71
2024/03/27 00:51:40;;;;;;;8.80;6.60;;;;;;;4.92;78.52;100030.84;105987;1256;66775;-72
2024/03/27 00:54:07;;;;;;;8.10;6.10;;;;;;;4.92;78.51;100030.31;105971;1254;62098;-72
2024/03/27 00:56:34;;;;;;;7.90;6.00;;;;;;;4.93;78.49;100028.72;105740;1257;62898;-71
2024/03/27 00:59:00;;;;;;;7.10;5.90;;;;;;;4.92;78.54;100027.51;105863;1255;62173;-71
2024/03/27 01:01:28;;;;;;;7.60;6.20;;;;;;;4.91;78.51;100028.29;106009;1254;62094;-71
2024/03/27 01:03:55;;;;;;;8.50;6.30;;;;;;;4.90;78.47;100030.10;105834;1256;66715;-72
2024/03/27 01:06:22;;;;;;;7.20;5.70;;;;;;;4.87;78.36;100028.34;105863;1254;62088;-71
2024/03/27 01:08:49;;;;;;;6.90;5.50;;;;;;;4.85;78.36;100027.63;105760;1259;64046;-71
2024/03/27 01:11:15;;;;;;;7.10;6.10;;;;;;;4.83;78.42;100026.68;105908;1254;62145;-72
2024/03/27 01:13:42;;;;;;;7.10;5.80;;;;;;;4.83;78.49;100030.17;105781;1254;62607;-71
2024/03/27 01:16:08;;;;;;;6.90;5.90;;;;;;;4.81;78.40;100028.02;105667;1254;66669;-71
2024/03/27 01:18:35;;;;;;;7.50;5.70;;;;;;;4.78;78.37;100025.75;105719;1254;62165;-71
2024/03/27 01:21:02;;;;;;;6.90;5.90;;;;;;;4.76;78.26;100025.70;105647;1254;63698;-71
2024/03/27 01:23:28;;;;;;;8.60;6.20;;;;;;;4.75;78.24;100026.84;105894;1254;62081;-68
2024/03/27 01:25:55;;;;;;;9.70;6.10;;;;;;;4.73;78.30;100029.38;105953;1254;63743;-71
2024/03/27 01:28:22;;;;;;;8.10;6.00;;;;;;;4.72;78.26;100032.78;105899;1256;66806;-71
2024/03/27 01:30:48;;;;;;;6.70;5.50;;;;;;;4.71;78.25;100034.23;105832;1254;62126;-69
2024/03/27 01:33:15;;;;;;;8.50;6.30;;;;;;;4.70;78.36;100034.30;105844;1256;64027;-69
2024/03/27 01:35:45;;;;;;;7.90;5.80;;;;;;;4.69;78.39;100036.05;105891;1254;62156;-70
2024/03/27 01:38:11;;;;;;;7.40;6.10;;;;;;;4.69;78.37;100038.02;105873;1254;62037;-71
2024/03/27 01:40:38;;;;;;;7.70;5.70;;;;;;;4.68;78.37;100041.36;105652;1256;66876;-71
2024/03/27 01:43:05;;;;;;;8.80;5.80;;;;;;;4.67;78.36;100044.05;105925;1256;62165;-69
2024/03/27 01:45:32;;;;;;;7.10;5.70;;;;;;;4.66;78.37;100042.56;105897;1254;63909;-69
2024/03/27 01:47:58;;;;;;;6.90;5.60;;;;;;;4.65;78.40;100038.45;105704;1254;62049;-70
2024/03/27 01:50:28;;;;;;;6.80;5.60;;;;;;;4.64;78.38;100037.47;105756;1258;62386;-69
2024/03/27 01:52:58;;;;;;;6.70;5.70;;;;;;;4.61;78.30;100039.35;105787;1258;68243;-70
2024/03/27 01:55:25;;;;;;;7.50;5.90;;;;;;;4.57;78.16;100045.15;105855;1256;62048;-70
2024/03/27 01:57:52;;;;;;;7.70;6.10;;;;;;;4.53;78.08;100049.24;105891;1254;62785;-70
2024/03/27 02:00:19;;;;;;;7.10;5.50;;;;;;;4.48;78.13;100051.09;105530;1254;62092;-69
2024/03/27 02:02:45;;;;;;;8.40;5.90;;;;;;;4.44;78.04;100047.85;105716;1254;62310;-69
2024/03/27 02:05:12;;;;;;;7.60;5.90;;;;;;;4.41;77.94;100052.56;105916;1255;62146;-69
2024/03/27 02:07:39;;;;;;;10.50;6.00;;;;;;;4.38;77.91;100056.59;105689;1253;62063;-69
2024/03/27 02:10:07;;;;;;;8.40;6.30;;;;;;;4.35;78.01;100058.70;105821;1256;63846;-69
2024/03/27 02:12:35;;;;;;;9.80;6.00;;;;;;;4.31;77.94;100058.58;105923;1254;62241;-69
2024/03/27 02:15:05;;;;;;;8.00;5.90;;;;;;;4.27;77.86;100055.86;105891;1257;62079;-69
2024/03/27 02:17:32;;;;;;;7.50;6.30;;;;;;;4.22;77.83;100062.75;105895;1256;66661;-69
2024/03/27 02:19:59;;;;;;;8.80;6.30;;;;;;;4.18;77.77;100063.56;105904;1256;62035;-70
2024/03/27 02:22:40;;;;;;;7.30;6.10;;;;;;;4.12;77.65;100066.47;105754;1254;65573;-69
2024/03/27 02:25:10;;;;;;;8.20;6.00;;;;;;;4.07;77.64;100070.30;105853;1254;62117;-69
2024/03/27 02:27:36;;;;;;;7.20;5.60;;;;;;;3.99;77.47;100074.38;105937;1254;62128;-69
2024/03/27 02:30:03;;;;;;;8.10;5.80;;;;;;;3.92;77.45;100078.42;105768;1259;66621;-68
2024/03/27 02:32:30;;;;;;;6.60;5.30;;;;;;;3.86;77.46;100081.39;105718;1254;62159;-69
2024/03/27 02:34:57;;;;;;;6.90;5.50;;;;;;;3.82;77.44;100087.55;105876;1256;63814;-69
2024/03/27 02:37:24;;;;;;;7.90;6.00;;;;;;;3.78;77.45;100092.64;106000;1257;62066;-69
2024/03/27 02:39:51;;;;;;;7.20;6.10;;;;;;;3.75;77.48;100091.58;105808;1257;62120;-69
2024/03/27 02:42:17;;;;;;;9.30;6.70;;;;;;;3.74;77.55;100092.52;105703;1254;65426;-71
2024/03/27 02:44:44;;;;;;;8.00;6.10;;;;;;;3.73;77.63;100091.87;105924;1257;62194;-70
2024/03/27 02:47:10;;;;;;;8.00;6.30;;;;;;;3.74;77.70;100090.08;105969;1256;62172;-69
2024/03/27 02:49:37;;;;;;;8.60;6.80;;;;;;;3.75;77.74;100087.55;105892;1254;62168;-69
2024/03/27 02:52:04;;;;;;;7.80;6.70;;;;;;;3.77;77.78;100091.64;105953;1256;62005;-70
2024/03/27 02:54:31;;;;;;;8.10;6.50;;;;;;;3.79;77.86;100096.97;105909;1254;66922;-70
2024/03/27 02:56:58;;;;;;;8.40;7.00;;;;;;;3.79;78.00;100100.65;105887;1254;62776;-69
2024/03/27 02:59:25;;;;;;;9.20;7.10;;;;;;;3.80;77.99;100106.48;105993;1254;64025;-69
2024/03/27 03:01:52;;;;;;;8.80;7.00;;;;;;;3.81;78.06;100106.94;105966;1254;62155;-70
2024/03/27 03:04:18;;;;;;;9.60;7.40;;;;;;;3.82;78.03;100102.70;105966;1252;62454;-69
2024/03/27 03:06:46;;;;;;;9.00;6.90;;;;;;;3.82;78.07;100104.07;105963;1256;66631;-70
2024/03/27 03:09:13;;;;;;;8.50;6.90;;;;;;;3.83;78.14;100100.89;106010;1256;62072;-72
2024/03/27 03:11:40;;;;;;;9.70;6.70;;;;;;;3.83;78.20;100102.13;105982;1254;63791;-71
2024/03/27 03:14:06;;;;;;;9.30;7.20;;;;;;;3.82;78.07;100104.95;106021;1255;62065;-70
2024/03/27 03:16:33;;;;;;;9.20;7.70;;;;;;;3.81;78.03;100102.75;105971;1254;62069;-69
2024/03/27 03:19:00;;;;;;;9.60;7.80;;;;;;;3.80;78.05;100105.41;105978;1254;65499;-70
2024/03/27 03:21:26;;;;;;;10.10;7.60;;;;;;;3.78;78.04;100106.62;105950;1256;62158;-69
2024/03/27 03:23:53;;;;;;;8.90;7.10;;;;;;;3.76;78.07;100107.91;105865;1254;62152;-69
2024/03/27 03:26:20;;;;;;;10.50;7.70;;;;;;;3.73;78.02;100109.23;105815;1258;62052;-70
2024/03/27 03:28:47;;;;;;;8.90;7.30;;;;;;;3.71;77.94;100112.66;105822;1252;62523;-70
2024/03/27 03:31:17;;;;;;;9.00;7.30;;;;;;;3.69;77.97;100118.02;105941;1256;62133;-69
2024/03/27 03:33:43;;;;;;;10.70;7.80;;;;;;;3.68;77.93;100126.48;106024;1256;62260;-69
2024/03/27 03:36:11;;;;;;;10.40;7.60;;;;;;;3.67;77.98;100134.00;105974;1255;64323;-70
2024/03/27 03:38:37;;;;;;;11.10;8.00;;;;;;;3.67;77.93;100139.04;105869;1256;61989;-69
2024/03/27 03:41:05;;;;;;;10.10;7.50;;;;;;;3.67;78.02;100140.59;105908;1254;62036;-69
2024/03/27 03:43:32;;;;;;;9.70;7.70;;;;;;;3.68;78.08;100146.84;106022;1257;66785;-71
2024/03/27 03:45:59;;;;;;;11.40;7.90;;;;;;;3.69;78.13;100146.42;105867;1256;62141;-70
2024/03/27 03:48:26;;;;;;;10.50;8.20;;;;;;;3.70;78.21;100148.83;105899;1256;63980;-70
2024/03/27 03:50:52;;;;;;;10.10;8.30;;;;;;;3.70;78.19;100150.54;105634;1254;62069;-69
2024/03/27 03:53:19;;;;;;;10.00;8.60;;;;;;;3.70;78.28;100154.73;105823;1257;62501;-70
2024/03/27 03:55:46;;;;;;;11.10;8.50;;;;;;;3.70;78.30;100154.89;105940;1254;65709;-71
2024/03/27 03:58:13;;;;;;;10.30;8.10;;;;;;;3.71;78.29;100156.79;105866;1254;62168;-71
2024/03/27 04:00:40;;;;;;;11.10;8.40;;;;;;;3.69;78.32;100155.46;105977;1256;62527;-70
2024/03/27 04:03:06;;;;;;;10.60;8.70;;;;;;;3.70;78.41;100149.86;105924;1255;62187;-70
2024/03/27 04:05:33;;;;;;;11.70;9.30;;;;;;;3.71;78.42;100150.30;105957;1256;62079;-70
2024/03/27 04:08:00;;;;;;;12.30;9.40;;;;;;;3.71;78.51;100147.50;105843;1257;66628;-71
2024/03/27 04:10:26;;;;;;;13.20;9.90;;;;;;;3.72;78.48;100147.13;105999;1256;62076;-71
2024/03/27 04:12:53;;;;;;;11.60;9.20;;;;;;;3.72;78.45;100144.30;105966;1257;62168;-70
2024/03/27 04:15:19;;;;;;;11.10;9.40;;;;;;;3.73;78.51;100143.55;105986;1256;62014;-70
2024/03/27 04:17:46;;;;;;;11.00;9.20;;;;;;;3.74;78.47;100141.61;105998;1258;62159;-71
2024/03/27 04:20:13;;;;;;;11.90;9.50;;;;;;;3.72;78.46;100143.61;105866;1256;66591;-71
2024/03/27 04:22:42;;;;;;;12.30;9.60;;;;;;;3.71;78.30;100141.23;105881;1254;62178;-71
2024/03/27 04:25:08;;;;;;;11.40;9.40;;;;;;;3.69;78.33;100142.06;105907;1254;62606;-71
2024/03/27 04:27:35;;;;;;;11.70;9.40;;;;;;;3.67;78.31;100139.05;105733;1260;62265;-71
2024/03/27 04:30:02;;;;;;;12.80;9.90;;;;;;;3.65;78.28;100136.39;105930;1256;62072;-71
2024/03/27 04:32:29;;;;;;;12.00;10.00;;;;;;;3.63;78.27;100137.19;105975;1256;66509;-71
2024/03/27 04:34:56;;;;;;;12.00;10.50;;;;;;;3.61;78.24;100142.13;105932;1254;62076;-71
2024/03/27 04:37:23;;;;;;;12.80;10.10;;;;;;;3.60;78.30;100142.06;105970;1256;64012;-73
2024/03/27 04:39:50;;;;;;;12.60;10.40;;;;;;;3.58;78.26;100144.96;105907;1256;62135;-70
2024/03/27 04:42:17;;;;;;;12.20;10.50;;;;;;;3.57;78.29;100146.92;105745;1256;62040;-71
2024/03/27 04:44:44;;;;;;;12.30;11.00;;;;;;;3.57;78.35;100152.45;105879;1257;65570;-71
2024/03/27 04:47:11;;;;;;;15.90;11.20;;;;;;;3.60;78.39;100152.34;105752;1256;62050;-69
2024/03/27 04:49:37;;;;;;;15.60;12.20;;;;;;;3.62;78.44;100153.41;105887;1254;63861;-70
2024/03/27 04:52:04;;;;;;;16.10;12.60;;;;;;;3.63;78.51;100156.64;105953;1256;62036;-70
2024/03/27 04:54:30;;;;;;;14.90;12.20;;;;;;;3.65;78.56;100149.59;105869;1255;62069;-71
2024/03/27 04:56:57;;;;;;;16.60;12.10;;;;;;;3.67;78.63;100147.41;105953;1256;62063;-71
2024/03/27 04:59:24;;;;;;;15.90;11.60;;;;;;;3.68;78.58;100146.98;105839;1256;62155;-71
2024/03/27 05:01:51;;;;;;;15.10;11.10;;;;;;;3.70;78.68;100144.48;105888;1256;62538;-71
2024/03/27 05:04:18;;;;;;;15.40;11.00;;;;;;;3.72;78.73;100145.55;106083;1256;61935;-70
2024/03/27 05:06:44;;;;;;;21.00;11.60;;;;;;;3.75;78.84;100143.84;105940;1254;62079;-70
2024/03/27 05:09:11;;;;;;;21.60;11.90;;;;;;;3.79;78.83;100143.29;105942;1256;66511;-71
2024/03/27 05:11:38;;;;;;;14.60;11.30;;;;;;;3.81;78.82;100148.90;105773;1258;62306;-71
2024/03/27 05:14:05;;;;;;;20.10;11.20;;;;;;;3.82;78.84;100157.02;105659;1254;63107;-71
2024/03/27 05:16:32;;;;;;;35.10;11.50;;;;;;;3.83;78.81;100162.00;105966;1256;62070;-70
2024/03/27 05:18:59;;;;;;;15.60;10.80;;;;;;;3.86;78.96;100167.06;105915;1254;62060;-71
2024/03/27 05:21:27;;;;;;;19.70;11.20;;;;;;;3.90;78.93;100171.58;105790;1256;66734;-69
2024/03/27 05:23:53;;;;;;;14.70;11.00;;;;;;;3.93;79.00;100176.80;105739;1256;62157;-69
2024/03/27 05:26:20;;;;;;;21.70;11.40;;;;;;;3.98;79.11;100181.92;105643;1257;63720;-70
2024/03/27 05:28:47;;;;;;;14.80;11.20;;;;;;;4.01;79.15;100180.84;105592;1254;62110;-69
2024/03/27 05:31:14;;;;;;;22.90;12.00;;;;;;;4.07;79.24;100180.05;105936;1254;62514;-70
2024/03/27 05:33:40;;;;;;;15.30;11.00;;;;;;;4.11;79.23;100183.45;105962;1263;66576;-70
2024/03/27 05:36:07;;;;;;;14.40;11.90;;;;;;;4.15;79.29;100184.10;105934;1257;62165;-70
2024/03/27 05:38:46;;;;;;;19.10;11.70;;;;;;;4.20;79.40;100185.59;105610;1258;62545;-69
2024/03/27 05:41:13;;;;;;;13.60;11.10;;;;;;;4.26;79.54;100183.33;105929;1256;62171;-69
2024/03/27 05:43:41;;;;;;;13.00;11.10;;;;;;;4.32;79.54;100180.20;105979;1253;62079;-70
2024/03/27 05:46:07;;;;;;;13.80;11.30;;;;;;;4.37;79.47;100176.77;105948;1256;66834;-71
2024/03/27 05:48:34;;;;;;;12.00;10.50;;;;;;;4.42;79.59;100177.69;105752;1260;62136;-71
2024/03/27 05:51:01;;;;;;;11.50;10.20;;;;;;;4.48;79.65;100183.95;105961;1257;63869;-70
2024/03/27 05:53:28;;;;;;;12.50;10.80;;;;;;;4.55;79.68;100184.27;105896;1257;62161;-71
2024/03/27 05:55:58;;;;;;;13.90;10.60;;;;;;;4.62;79.67;100178.64;105800;1257;62076;-70
2024/03/27 05:58:26;;;;;;;13.50;11.50;;;;;;;4.69;79.77;100183.85;105616;1260;66581;-70
2024/03/27 06:00:52;;;;;;;12.80;11.00;;;;;;;4.77;79.89;100184.02;105847;1254;62095;-70
2024/03/27 06:03:19;;;;;;;11.40;10.20;;;;;;;4.86;79.90;100189.23;105841;1254;63870;-70
2024/03/27 06:05:47;;;;;;;11.10;9.90;;;;;;;4.95;79.87;100191.35;105915;1253;62177;-70
2024/03/27 06:08:13;;;;;;;11.20;9.30;;;;;;;5.01;79.86;100197.42;106000;1255;62075;-70
2024/03/27 06:10:42;;;;;;;10.30;9.20;;;;;;;5.09;79.89;100197.70;105981;1256;67337;-70
2024/03/27 06:13:09;;;;;;;11.70;10.50;;;;;;;5.17;79.86;100198.08;105933;1256;62085;-69
2024/03/27 06:15:36;;;;;;;10.00;9.00;;;;;;;5.27;79.97;100200.27;105878;1255;62588;-70
2024/03/27 06:18:02;;;;;;;9.90;8.80;;;;;;;5.36;79.86;100206.31;105853;1256;62054;-71
2024/03/27 06:20:29;;;;;;;10.10;8.70;;;;;;;5.40;79.47;100205.56;105756;1254;62105;-70
2024/03/27 06:22:56;;;;;;;10.20;9.10;;;;;;;5.39;79.17;100207.52;105966;1256;66726;-70
2024/03/27 06:25:23;;;;;;;9.90;8.60;;;;;;;5.39;79.04;100210.14;105905;1254;62190;-70
2024/03/27 06:27:49;;;;;;;10.00;8.00;;;;;;;5.44;79.01;100212.51;105784;1258;64101;-71
2024/03/27 06:30:16;;;;;;;10.90;9.10;;;;;;;5.51;78.89;100214.54;105876;1257;62177;-70
2024/03/27 06:32:44;;;;;;;8.90;7.60;;;;;;;5.60;78.82;100208.37;105905;1256;63823;-70
2024/03/27 06:35:11;;;;;;;8.80;7.50;;;;;;;5.71;78.77;100206.63;105817;1266;66515;-70
2024/03/27 06:37:38;;;;;;;9.30;8.00;;;;;;;5.86;78.88;100200.30;105705;1254;62657;-70
2024/03/27 06:40:09;;;;;;;8.10;6.80;;;;;;;5.99;78.77;100202.80;105745;1254;64102;-70
2024/03/27 06:42:37;;;;;;;7.60;6.60;;;;;;;6.08;78.40;100202.95;105939;1257;62076;-71
2024/03/27 06:45:04;;;;;;;6.50;5.80;;;;;;;6.15;78.13;100199.54;105894;1257;61967;-73
2024/03/27 06:47:43;;;;;;;7.50;6.30;;;;;;;6.22;77.89;100197.86;105886;1256;66916;-71
2024/03/27 06:50:10;;;;;;;8.20;6.00;;;;;;;6.27;77.49;100198.55;105744;1257;62213;-70
2024/03/27 06:52:37;;;;;;;8.10;6.10;;;;;;;6.31;77.03;100200.91;105874;1256;64137;-72
2024/03/27 06:55:04;;;;;;;8.90;7.80;;;;;;;6.39;76.91;100204.33;105939;1253;62036;-71
2024/03/27 06:57:30;;;;;;;10.30;8.90;;;;;;;6.48;76.63;100206.35;105896;1254;62383;-71
2024/03/27 06:59:57;;;;;;;8.10;7.00;;;;;;;6.56;76.29;100208.78;105948;1256;66904;-71
2024/03/27 07:02:24;;;;;;;8.40;7.10;;;;;;;6.65;76.14;100204.99;105961;1257;62501;-72
2024/03/27 07:04:51;;;;;;;8.00;6.20;;;;;;;6.76;75.87;100195.58;105904;1257;65889;-72
2024/03/27 07:07:18;;;;;;;7.30;6.10;;;;;;;6.84;75.48;100191.66;105936;1259;62013;-73
2024/03/27 07:09:45;;;;;;;8.60;6.10;;;;;;;6.90;75.13;100192.83;105949;1254;62242;-72
2024/03/27 07:12:12;;;;;;;6.60;5.80;;;;;;;6.98;74.67;100192.87;106006;1257;68966;-72
2024/03/27 07:14:39;;;;;;;7.10;5.10;;;;;;;7.09;74.68;100198.59;105897;1257;62206;-72
2024/03/27 07:17:06;;;;;;;5.40;4.90;;;;;;;7.19;74.35;100199.48;105715;1257;66002;-72
2024/03/27 07:19:33;;;;;;;5.00;4.50;;;;;;;7.26;73.81;100202.54;105872;1256;61960;-71
2024/03/27 07:22:00;;;;;;;5.30;4.70;;;;;;;7.31;73.38;100207.77;105806;1252;62149;-73
2024/03/27 07:24:27;;;;;;;4.70;4.20;;;;;;;7.33;73.08;100210.90;105988;1257;68645;-77
2024/03/27 07:26:57;;;;;;;5.60;4.40;;;;;;;7.39;72.69;100219.48;105789;1257;61922;-72
2024/03/27 07:29:24;;;;;;;4.90;3.70;;;;;;;7.45;72.41;100219.76;105857;1257;63873;-71
2024/03/27 07:31:50;;;;;;;3.80;3.30;;;;;;;7.48;71.82;100223.58;105910;1255;62511;-71
2024/03/27 07:34:17;;;;;;;3.80;3.40;;;;;;;7.50;71.38;100227.30;105982;1257;62076;-71
2024/03/27 07:36:44;;;;;;;3.90;3.50;;;;;;;7.53;71.03;100228.48;105859;1257;69183;-72
2024/03/27 07:39:11;;;;;;;4.20;3.80;;;;;;;7.56;70.50;100232.83;106031;1257;62159;-72
2024/03/27 07:41:38;;;;;;;4.10;3.70;;;;;;;7.58;70.17;100235.88;105951;1254;65788;-70
2024/03/27 07:44:05;;;;;;;4.50;4.00;;;;;;;7.57;69.59;100238.21;105627;1253;62162;-70
2024/03/27 07:46:31;;;;;;;5.10;3.60;;;;;;;7.51;68.88;100243.38;105833;1252;62040;-71
2024/03/27 07:48:58;;;;;;;4.30;3.80;;;;;;;7.45;68.66;100245.66;105857;1257;66451;-71
2024/03/27 07:51:26;;;;;;;4.20;3.80;;;;;;;7.45;68.55;100248.16;105804;1255;62149;-71
2024/03/27 07:53:52;;;;;;;4.40;3.90;;;;;;;7.49;68.79;100245.91;105965;1256;65947;-73
2024/03/27 07:56:19;;;;;;;5.00;4.00;;;;;;;7.57;68.80;100238.76;105730;1254;62137;-71
2024/03/27 07:58:46;;;;;;;4.80;3.80;;;;;;;7.63;68.78;100236.38;105696;1255;62097;-71
2024/03/27 08:01:13;;;;;;;5.00;3.90;;;;;;;7.69;68.63;100237.50;106073;1257;67647;-74
2024/03/27 08:03:40;;;;;;;4.00;3.60;;;;;;;7.83;68.84;100243.02;105711;1260;61970;-78
2024/03/27 08:06:07;;;;;;;4.00;3.50;;;;;;;8.05;68.80;100247.11;105740;1259;65737;-76
2024/03/27 08:08:34;;;;;;;4.40;3.80;;;;;;;8.28;68.52;100245.99;105812;1257;62705;-71
2024/03/27 08:11:02;;;;;;;4.50;3.70;;;;;;;8.44;68.10;100242.40;105979;1254;62043;-76
2024/03/27 08:13:29;;;;;;;4.00;3.20;;;;;;;8.52;67.54;100241.92;105884;1255;68679;-73
2024/03/27 08:15:56;;;;;;;3.80;3.40;;;;;;;8.55;67.13;100234.90;105988;1258;61955;-79
2024/03/27 08:18:23;;;;;;;3.80;3.30;;;;;;;8.53;66.78;100235.79;105696;1261;63508;-79
2024/03/27 08:20:53;;;;;;;3.70;3.30;;;;;;;8.49;66.36;100239.35;105824;1257;62069;-74
2024/03/27 08:23:20;;;;;;;3.80;3.40;;;;;;;8.46;66.04;100237.63;105622;1259;62097;-71
2024/03/27 08:25:47;;;;;;;3.90;3.40;;;;;;;8.46;65.97;100230.66;106186;1254;68567;-80
2024/03/27 08:28:14;;;;;;;3.30;3.00;;;;;;;8.47;66.07;100231.29;107963;1254;59904;-71
2024/03/27 08:30:44;;;;;;;3.50;3.20;;;;;;;8.49;65.88;100235.35;107399;1254;72055;-70
2024/03/27 08:33:11;;;;;;;4.60;3.10;;;;;;;8.53;65.95;100232.94;105827;1253;62139;-82
2024/03/27 08:35:39;;;;;;;3.90;3.40;;;;;;;8.56;65.77;100230.45;105793;1253;62156;-83
2024/03/27 08:38:06;;;;;;;4.70;3.40;;;;;;;8.57;65.57;100231.38;105929;1256;68619;-79
2024/03/27 08:40:41;;;;;;;3.90;3.40;;;;;;;8.60;65.23;100230.29;105997;1254;62223;-75
2024/03/27 08:43:08;;;;;;;4.90;3.30;;;;;;;8.67;65.14;100228.73;105838;1257;63448;-76
2024/03/27 08:45:35;;;;;;;3.40;3.10;;;;;;;8.82;65.29;100225.55;106025;1254;61958;-79
2024/03/27 08:48:02;;;;;;;2.90;2.60;;;;;;;9.02;65.33;100222.64;106064;1257;62079;-79
2024/03/27 08:50:29;;;;;;;4.20;2.70;;;;;;;9.26;65.14;100226.27;106169;1251;78246;-80
2024/03/27 08:52:56;;;;;;;3.00;2.70;;;;;;;9.47;65.06;100230.79;105824;1253;62050;-77
2024/03/27 08:55:23;;;;;;;3.10;2.70;;;;;;;9.63;64.34;100231.43;105894;1253;65740;-74
2024/03/27 08:57:50;;;;;;;2.80;2.40;;;;;;;9.71;63.57;100231.34;105568;1254;62130;-78
2024/03/27 09:00:17;;;;;;;3.50;2.90;;;;;;;9.79;63.04;100229.88;106130;1254;62034;-81
2024/03/27 09:02:48;;;;;;;3.70;3.20;;;;;;;9.91;62.81;100226.08;106164;1255;68644;-79
2024/03/27 09:05:17;;;;;;;2.90;2.60;;;;;;;10.09;62.70;100222.54;106081;1256;62063;-79
2024/03/27 09:07:44;;;;;;;3.20;2.50;;;;;;;10.24;62.23;100222.99;106044;1255;71693;-79
2024/03/27 09:10:12;;;;;;;3.10;2.70;;;;;;;10.29;62.00;100220.10;105985;1254;62078;-79
2024/03/27 09:12:38;;;;;;;3.20;2.50;;;;;;;10.27;61.56;100219.15;106061;1252;62838;-78
2024/03/27 09:15:06;;;;;;;3.40;2.50;;;;;;;10.24;61.12;100210.45;105910;1256;68818;-78
2024/03/27 09:17:34;;;;;;;3.10;2.50;;;;;;;10.17;60.53;100205.58;105749;1254;62145;-77
2024/03/27 09:20:00;;;;;;;3.10;2.70;;;;;;;10.10;60.44;100208.44;105996;1254;65681;-76
2024/03/27 09:22:27;;;;;;;3.30;2.80;;;;;;;10.04;60.44;100209.05;105877;1254;62023;-77
2024/03/27 09:24:54;;;;;;;2.70;2.50;;;;;;;9.99;60.37;100207.67;105644;1253;62201;-76
2024/03/27 09:27:21;;;;;;;3.50;2.80;;;;;;;9.99;60.33;100209.96;105924;1254;67427;-76
2024/03/27 09:29:52;;;;;;;3.40;2.80;;;;;;;10.05;60.51;100211.99;105881;1254;62183;-77
2024/03/27 09:32:21;;;;;;;3.00;2.70;;;;;;;10.10;60.32;100204.04;105644;1254;74004;-77
2024/03/27 09:34:48;;;;;;;2.90;2.60;;;;;;;10.11;60.25;100203.38;105812;1254;62203;-76
2024/03/27 09:37:15;;;;;;;3.70;2.80;;;;;;;10.18;60.31;100195.44;105930;1258;62194;-77
2024/03/27 09:39:43;;;;;;;3.20;2.60;;;;;;;10.24;59.92;100186.17;105981;1257;68821;-76
2024/03/27 09:42:09;;;;;;;3.40;2.90;;;;;;;10.30;59.84;100187.45;105918;1254;62628;-76
2024/03/27 09:44:37;;;;;;;3.80;3.00;;;;;;;10.38;59.82;100183.84;105612;1254;65638;-76
2024/03/27 09:47:04;;;;;;;3.60;3.10;;;;;;;10.45;59.59;100181.86;105837;1254;62088;-76
2024/03/27 09:49:31;;;;;;;4.80;3.20;;;;;;;10.53;59.34;100180.86;105741;1254;62095;-76
2024/03/27 09:51:58;;;;;;;3.70;2.80;;;;;;;10.61;59.00;100187.77;105768;1259;68628;-76
2024/03/27 09:54:26;;;;;;;4.10;2.80;;;;;;;10.71;58.93;100188.54;105799;1254;62236;-76
2024/03/27 09:56:54;;;;;;;3.60;2.90;;;;;;;10.88;59.18;100186.39;105907;1255;65852;-76
2024/03/27 09:59:21;;;;;;;3.30;2.90;;;;;;;11.08;58.82;100190.34;105741;1254;62143;-76
2024/03/27 10:02:00;;;;;;;3.10;2.80;;;;;;;11.26;58.42;100191.98;105684;1261;62086;-75
2024/03/27 10:04:27;;;;;;;2.70;2.50;;;;;;;11.42;58.25;100197.95;105773;1259;68683;-78
2024/03/27 10:06:54;;;;;;;3.30;2.70;;;;;;;11.63;57.99;100199.69;105895;1257;68588;-77
2024/03/27 10:09:21;;;;;;;3.30;2.70;;;;;;;11.78;57.59;100196.77;105978;1254;65636;-76
2024/03/27 10:11:47;;;;;;;3.20;2.80;;;;;;;11.91;56.91;100193.23;105950;1257;62034;-76
2024/03/27 10:14:14;;;;;;;2.90;2.60;;;;;;;11.99;56.36;100194.64;105915;1254;62567;-77
2024/03/27 10:16:41;;;;;;;3.00;2.60;;;;;;;12.11;56.25;100196.92;105695;1256;68796;-76
2024/03/27 10:19:08;;;;;;;2.80;2.50;;;;;;;12.27;56.03;100196.54;105631;1254;168447;-76
2024/03/27 10:21:35;;;;;;;3.70;2.80;;;;;;;12.41;55.51;100192.35;105870;1254;65592;-82
2024/03/27 10:24:03;;;;;;;3.10;2.40;;;;;;;12.54;55.27;100190.73;105753;1254;62088;-76
2024/03/27 10:26:30;;;;;;;2.50;2.10;;;;;;;12.65;54.16;100194.57;105800;1254;62156;-77
2024/03/27 10:28:57;;;;;;;3.00;2.50;;;;;;;12.73;54.31;100196.29;105978;1254;68734;-78
2024/03/27 10:31:25;;;;;;;2.80;2.60;;;;;;;12.81;54.10;100197.95;105993;1254;62069;-77
2024/03/27 10:33:52;;;;;;;3.00;2.50;;;;;;;12.93;53.54;100198.30;105922;1254;65952;-77
2024/03/27 10:36:23;;;;;;;2.70;2.40;;;;;;;13.02;53.50;100197.45;105917;1254;62170;-75
2024/03/27 10:38:57;;;;;;;2.60;2.30;;;;;;;13.07;52.89;100193.97;106065;1254;62450;-71
2024/03/27 10:41:25;;;;;;;2.70;2.50;;;;;;;13.05;52.62;100189.23;105945;1253;67642;-73
2024/03/27 10:43:56;;;;;;;2.70;2.30;;;;;;;13.11;52.94;100192.27;106011;1252;62651;-71
2024/03/27 10:46:24;;;;;;;2.50;2.30;;;;;;;13.25;53.40;100192.34;105628;1259;63674;-71
2024/03/27 10:48:51;;;;;;;2.70;2.20;;;;;;;13.44;53.00;100186.88;105737;1255;62114;-71
2024/03/27 10:51:21;;;;;;;2.50;2.30;;;;;;;13.56;52.70;100186.61;105929;1256;62050;-73
2024/03/27 10:53:48;;;;;;;2.20;2.00;;;;;;;13.67;52.26;100190.81;105804;1254;68359;-70
2024/03/27 10:56:15;;;;;;;2.80;2.10;;;;;;;13.78;51.93;100193.20;105812;1257;62015;-71
2024/03/27 10:58:42;;;;;;;3.70;2.50;;;;;;;13.89;51.76;100187.53;105895;1257;64535;-71
2024/03/27 11:01:10;;;;;;;2.40;2.20;;;;;;;13.99;51.18;100183.33;105959;1254;62143;-74
2024/03/27 11:03:38;;;;;;;2.60;2.20;;;;;;;14.04;51.04;100181.23;105720;1259;62027;-71
2024/03/27 11:06:05;;;;;;;2.40;2.10;;;;;;;14.15;50.46;100179.98;106046;1256;68651;-71
2024/03/27 11:08:33;;;;;;;2.70;2.30;;;;;;;14.16;49.90;100172.66;105831;1254;62024;-71
2024/03/27 11:11:10;;;;;;;2.70;2.40;;;;;;;14.13;49.99;100178.45;105760;1256;66086;-70
2024/03/27 11:13:37;;;;;;;2.80;2.40;;;;;;;14.07;50.22;100175.81;105782;1258;62020;-69
2024/03/27 11:16:13;;;;;;;2.60;2.40;;;;;;;14.13;50.42;100173.46;105772;1254;62033;-70
2024/03/27 11:18:45;;;;;;;3.00;2.50;;;;;;;14.16;49.56;100172.56;105891;1257;68773;-74